Time;durP1;ratioP1;P1;durP2;ratioP2;P2;SDS_P1;SDS_P2;PMS_P1;PMS_P2;Temp;Humidity;BMP_temperature;BMP_pressure;BME280_temperature;BME280_humidity;BME280_pressure;Samples;Min_cycle;Max_cycle;Signal;HPM_P1;HPM_P2
2023/06/14 00:00:43;;;;;;;5.55;1.95;;;17.50;69.60;;;;;;4974368;28;20046;-67
2023/06/14 00:03:09;;;;;;;3.67;2.38;;;17.50;70.60;;;;;;4974470;28;20123;-66
2023/06/14 00:05:40;;;;;;;2.58;1.33;;;17.50;71.20;;;;;;4974728;28;20101;-67
2023/06/14 00:08:07;;;;;;;5.55;1.85;;;17.40;72.00;;;;;;4974308;28;20097;-67
2023/06/14 00:10:35;;;;;;;7.38;1.73;;;17.30;73.00;;;;;;4972772;28;20038;-67
2023/06/14 00:13:04;;;;;;;2.92;1.67;;;17.30;73.40;;;;;;4974408;28;20043;-67
2023/06/14 00:15:30;;;;;;;6.88;2.50;;;17.30;74.60;;;;;;4974570;28;20051;-67
2023/06/14 00:18:02;;;;;;;5.80;1.75;;;17.20;75.00;;;;;;4974179;28;20050;-67
2023/06/14 00:20:33;;;;;;;4.82;1.70;;;17.10;75.80;;;;;;4973927;28;20057;-67
2023/06/14 00:23:01;;;;;;;4.50;1.35;;;17.20;75.80;;;;;;4974123;28;20078;-67
2023/06/14 00:25:27;;;;;;;2.30;1.48;;;17.20;76.10;;;;;;4974386;28;20049;-66
2023/06/14 00:27:54;;;;;;;5.35;1.52;;;17.10;76.60;;;;;;4973570;28;20035;-66
2023/06/14 00:30:20;;;;;;;4.32;1.90;;;17.10;77.00;;;;;;4973415;28;20517;-66
2023/06/14 00:32:47;;;;;;;3.50;1.58;;;17.00;78.10;;;;;;4966071;28;20035;-66
2023/06/14 00:35:13;;;;;;;2.50;1.48;;;17.00;78.80;;;;;;4974101;28;20065;-66
2023/06/14 00:37:39;;;;;;;3.63;1.77;;;17.00;79.20;;;;;;4973742;28;20050;-66
2023/06/14 00:40:05;;;;;;;3.67;1.45;;;16.90;80.10;;;;;;4973781;28;20042;-67
2023/06/14 00:42:31;;;;;;;3.22;1.70;;;16.80;80.40;;;;;;4973814;28;20046;-67
2023/06/14 00:44:57;;;;;;;2.47;1.50;;;16.80;81.40;;;;;;4973971;28;20047;-66
2023/06/14 00:47:23;;;;;;;3.75;1.25;;;16.80;81.80;;;;;;4973712;28;20034;-66
2023/06/14 00:49:53;;;;;;;3.17;1.02;;;16.80;82.30;;;;;;4973423;28;20406;-66
2023/06/14 00:52:19;;;;;;;5.35;1.48;;;16.70;82.80;;;;;;4973576;28;20039;-66
2023/06/14 00:54:45;;;;;;;4.78;1.33;;;16.70;83.30;;;;;;4973928;28;20043;-66
2023/06/14 00:57:11;;;;;;;2.85;1.20;;;16.70;84.10;;;;;;4973473;28;20050;-66
2023/06/14 00:59:48;;;;;;;1.60;0.88;;;16.70;84.60;;;;;;4973240;28;20082;-66
2023/06/14 01:02:14;;;;;;;2.50;1.17;;;16.60;85.60;;;;;;4973599;28;20043;-66
2023/06/14 01:04:41;;;;;;;5.57;1.45;;;16.50;86.50;;;;;;4973466;28;20074;-66
2023/06/14 01:07:36;;;;;;;1.98;1.27;;;16.60;86.40;;;;;;4973402;28;20101;-66
2023/06/14 01:10:05;;;;;;;1.85;1.20;;;16.60;87.30;;;;;;4957283;28;20046;-66
2023/06/14 01:12:37;;;;;;;3.35;1.20;;;16.50;87.80;;;;;;4973321;28;20051;-67
2023/06/14 01:15:03;;;;;;;4.50;1.52;;;16.50;89.70;;;;;;4973283;28;20093;-67
2023/06/14 01:17:31;;;;;;;3.78;1.30;;;16.40;89.30;;;;;;4973024;28;20093;-67
2023/06/14 01:20:09;;;;;;;3.03;1.40;;;16.40;89.70;;;;;;4973055;28;20420;-66
2023/06/14 01:22:35;;;;;;;3.35;1.50;;;16.40;90.20;;;;;;4973382;28;20050;-67
2023/06/14 01:25:01;;;;;;;3.05;1.30;;;16.40;90.50;;;;;;4973236;28;20042;-66
2023/06/14 01:27:32;;;;;;;3.88;1.30;;;16.40;90.50;;;;;;4972926;28;20093;-66
2023/06/14 01:30:00;;;;;;;3.15;1.20;;;16.30;90.80;;;;;;4972179;28;20031;-66
2023/06/14 01:32:29;;;;;;;3.95;1.55;;;16.20;91.20;;;;;;4955105;28;20491;-66
2023/06/14 01:34:54;;;;;;;5.22;1.42;;;16.20;91.60;;;;;;4972423;28;20121;-66
2023/06/14 01:37:22;;;;;;;4.03;1.20;;;16.20;91.60;;;;;;4971973;28;20125;-66
2023/06/14 01:39:49;;;;;;;3.42;1.88;;;16.20;91.70;;;;;;4971007;28;20062;-67
2023/06/14 01:42:16;;;;;;;3.55;1.40;;;16.20;92.00;;;;;;4971978;28;20484;-66
2023/06/14 01:44:44;;;;;;;2.85;1.50;;;16.20;92.20;;;;;;4972378;28;20042;-66
2023/06/14 01:47:10;;;;;;;3.30;1.33;;;16.10;92.60;;;;;;4972055;28;20192;-66
2023/06/14 01:49:35;;;;;;;3.55;1.42;;;16.00;93.00;;;;;;4971833;28;20039;-67
2023/06/14 01:52:01;;;;;;;5.05;1.65;;;16.10;93.40;;;;;;4972169;28;20045;-66
2023/06/14 01:54:27;;;;;;;4.45;1.50;;;16.00;93.70;;;;;;4972039;28;20507;-66
2023/06/14 01:56:53;;;;;;;3.33;1.40;;;15.90;94.00;;;;;;4971605;28;20507;-66
2023/06/14 01:59:18;;;;;;;3.35;1.45;;;15.90;94.40;;;;;;4971823;28;20493;-67
2023/06/14 02:01:46;;;;;;;3.42;1.73;;;15.80;95.00;;;;;;4971973;28;20072;-66
2023/06/14 02:04:11;;;;;;;4.13;1.75;;;15.90;95.10;;;;;;4971938;28;20502;-66
2023/06/14 02:06:37;;;;;;;3.45;1.80;;;15.80;95.30;;;;;;4971744;28;20043;-67
2023/06/14 02:09:03;;;;;;;3.58;1.73;;;15.80;95.80;;;;;;4971474;28;20035;-66
2023/06/14 02:11:29;;;;;;;4.28;1.73;;;15.70;96.20;;;;;;4971760;28;20597;-67
2023/06/14 02:13:55;;;;;;;2.13;1.42;;;15.80;96.40;;;;;;4972075;28;20042;-66
2023/06/14 02:16:22;;;;;;;3.13;2.00;;;15.70;96.70;;;;;;4971651;28;20423;-66
2023/06/14 02:18:48;;;;;;;5.47;2.42;;;15.70;96.90;;;;;;4970090;28;20491;-66
2023/06/14 02:21:14;;;;;;;6.07;2.22;;;15.70;97.00;;;;;;4971726;28;20042;-66
2023/06/14 02:23:39;;;;;;;3.78;2.00;;;15.70;97.30;;;;;;4971701;28;20439;-67
2023/06/14 02:26:05;;;;;;;5.47;2.40;;;15.70;97.60;;;;;;4971549;28;20086;-66
2023/06/14 02:28:31;;;;;;;7.57;2.42;;;15.60;97.90;;;;;;4971626;28;20039;-67
2023/06/14 02:30:56;;;;;;;5.97;2.15;;;15.60;98.30;;;;;;4935725;28;1062406;-66
2023/06/14 02:33:22;;;;;;;3.63;2.05;;;15.50;98.50;;;;;;4972608;28;20046;-67
2023/06/14 02:35:47;;;;;;;2.90;2.08;;;15.60;98.80;;;;;;4972625;28;20054;-66
2023/06/14 02:38:13;;;;;;;3.97;2.28;;;15.50;99.20;;;;;;4972209;28;20125;-66
2023/06/14 02:40:40;;;;;;;2.45;1.70;;;15.50;99.40;;;;;;4970699;28;20053;-67
2023/06/14 02:43:06;;;;;;;4.13;2.63;;;15.40;99.60;;;;;;4971080;28;20078;-66
2023/06/14 02:45:31;;;;;;;4.40;2.83;;;15.40;99.90;;;;;;4972550;28;20074;-67
2023/06/14 02:47:57;;;;;;;3.47;1.95;;;15.40;99.90;;;;;;4972117;28;20047;-66
2023/06/14 02:50:23;;;;;;;4.70;2.42;;;15.40;99.90;;;;;;4973243;28;20038;-66
2023/06/14 02:52:49;;;;;;;4.47;2.30;;;15.30;99.90;;;;;;4969644;28;20050;-67
2023/06/14 02:55:14;;;;;;;6.38;2.55;;;15.30;99.90;;;;;;4975366;28;20047;-67
2023/06/14 02:57:40;;;;;;;3.13;2.33;;;15.30;99.90;;;;;;4969227;28;20502;-67
2023/06/14 03:00:09;;;;;;;5.15;2.80;;;15.30;99.90;;;;;;4967085;28;20507;-66
2023/06/14 03:02:35;;;;;;;4.53;2.60;;;15.30;99.90;;;;;;4975835;28;20055;-66
2023/06/14 03:05:02;;;;;;;5.97;2.65;;;15.20;99.90;;;;;;4975249;28;20472;-66
2023/06/14 03:07:29;;;;;;;6.97;2.28;;;15.20;99.90;;;;;;4975235;28;20046;-66
2023/06/14 03:09:55;;;;;;;6.15;2.13;;;15.10;99.90;;;;;;4975177;28;20042;-66
2023/06/14 03:12:20;;;;;;;3.60;2.20;;;15.10;99.90;;;;;;4975763;28;20049;-67
2023/06/14 03:14:46;;;;;;;3.92;2.38;;;15.20;99.90;;;;;;4975534;28;20046;-66
2023/06/14 03:17:12;;;;;;;6.63;2.20;;;15.10;99.90;;;;;;4967093;28;20126;-66
2023/06/14 03:19:38;;;;;;;5.82;1.90;;;15.10;99.90;;;;;;4973753;28;20042;-67
2023/06/14 03:22:04;;;;;;;3.58;2.30;;;15.10;99.90;;;;;;4973970;28;20051;-67
2023/06/14 03:24:31;;;;;;;5.50;2.38;;;15.10;99.90;;;;;;4975247;28;20050;-67
2023/06/14 03:26:57;;;;;;;4.72;2.05;;;15.10;99.90;;;;;;4974911;28;20042;-67
2023/06/14 03:29:23;;;;;;;4.53;2.72;;;15.10;99.90;;;;;;4974954;28;20031;-67
2023/06/14 03:31:59;;;;;;;9.43;2.35;;;15.10;99.90;;;;;;4975330;28;20049;-67
2023/06/14 03:34:25;;;;;;;7.20;2.35;;;15.00;99.90;;;;;;4975232;28;20058;-67
2023/06/14 03:36:51;;;;;;;5.45;2.17;;;15.10;99.90;;;;;;4974745;28;20410;-67
2023/06/14 03:39:17;;;;;;;4.28;2.20;;;15.00;99.90;;;;;;4974705;28;20050;-66
2023/06/14 03:41:42;;;;;;;5.35;2.42;;;15.00;99.90;;;;;;4974895;28;20081;-67
2023/06/14 03:44:08;;;;;;;4.40;2.28;;;15.10;99.90;;;;;;4975196;28;20422;-67
2023/06/14 03:46:33;;;;;;;2.95;2.00;;;15.10;99.90;;;;;;4969758;28;20043;-67
2023/06/14 03:49:00;;;;;;;4.72;2.33;;;15.00;99.90;;;;;;4960522;28;20045;-67
2023/06/14 03:51:26;;;;;;;2.88;2.00;;;15.00;99.90;;;;;;4973634;28;20529;-68
2023/06/14 03:53:51;;;;;;;6.05;2.20;;;15.10;99.90;;;;;;4974044;28;20043;-68
2023/06/14 03:56:17;;;;;;;3.70;2.28;;;15.10;99.90;;;;;;4974073;28;20042;-64
2023/06/14 03:58:42;;;;;;;7.18;2.42;;;15.10;99.90;;;;;;4969489;28;20042;-65
2023/06/14 04:01:08;;;;;;;7.75;2.63;;;15.10;99.90;;;;;;4969717;28;20035;-65
2023/06/14 04:03:34;;;;;;;5.03;2.05;;;15.10;99.90;;;;;;4965947;28;20046;-65
2023/06/14 04:06:00;;;;;;;7.55;2.67;;;15.10;99.90;;;;;;4974463;28;20075;-65
2023/06/14 04:08:26;;;;;;;6.03;2.38;;;15.10;99.90;;;;;;4974416;28;20038;-65
2023/06/14 04:10:51;;;;;;;4.68;1.98;;;15.20;99.90;;;;;;4972742;28;20411;-65
2023/06/14 04:13:17;;;;;;;5.15;1.98;;;15.10;99.90;;;;;;4974471;28;20039;-65
2023/06/14 04:15:45;;;;;;;6.68;2.35;;;15.20;99.90;;;;;;4974295;28;20406;-65
2023/06/14 04:18:11;;;;;;;6.75;2.50;;;15.20;99.90;;;;;;4974112;28;20398;-66
2023/06/14 04:20:37;;;;;;;5.72;3.05;;;15.20;99.90;;;;;;4971488;28;20058;-66
2023/06/14 04:23:17;;;;;;;3.67;2.50;;;15.20;99.90;;;;;;4968050;28;20035;-66
2023/06/14 04:25:45;;;;;;;2.92;2.40;;;15.20;99.90;;;;;;4974019;28;20034;-66
2023/06/14 04:28:15;;;;;;;3.53;2.47;;;15.20;99.90;;;;;;4973620;28;20078;-67
2023/06/14 04:30:42;;;;;;;5.82;2.50;;;15.30;99.90;;;;;;4973243;28;20070;-67
2023/06/14 04:33:09;;;;;;;6.88;3.42;;;15.40;99.90;;;;;;4973854;28;20093;-67
2023/06/14 04:35:35;;;;;;;6.75;2.80;;;15.40;99.90;;;;;;4973982;28;20047;-67
2023/06/14 04:38:04;;;;;;;5.75;2.80;;;15.50;99.90;;;;;;4973631;28;20034;-67
2023/06/14 04:40:30;;;;;;;3.10;2.50;;;15.50;99.90;;;;;;4973113;28;20046;-67
2023/06/14 04:42:55;;;;;;;4.40;2.40;;;15.60;99.90;;;;;;4973475;28;20035;-67
2023/06/14 04:45:22;;;;;;;4.18;2.38;;;15.80;99.90;;;;;;4973657;28;20043;-67
2023/06/14 04:47:47;;;;;;;4.65;2.65;;;15.90;99.90;;;;;;4973267;28;20034;-67
2023/06/14 04:50:13;;;;;;;5.65;2.63;;;16.10;99.90;;;;;;4973213;28;20046;-67
2023/06/14 04:52:39;;;;;;;5.80;2.60;;;16.30;99.90;;;;;;4965743;28;20046;-67
2023/06/14 04:55:05;;;;;;;5.55;2.60;;;16.50;99.90;;;;;;4973824;28;20077;-67
2023/06/14 04:57:31;;;;;;;7.13;2.80;;;16.60;99.90;;;;;;4973328;28;20117;-67
2023/06/14 04:59:57;;;;;;;6.30;3.00;;;16.70;99.90;;;;;;4973070;28;20042;-67
2023/06/14 05:02:24;;;;;;;4.70;3.40;;;16.90;99.90;;;;;;4973342;28;20043;-67
2023/06/14 05:04:50;;;;;;;7.40;2.90;;;17.20;99.90;;;;;;4973478;28;20550;-67
2023/06/14 05:07:15;;;;;;;5.18;3.35;;;17.40;99.90;;;;;;4973183;28;20410;-67
2023/06/14 05:09:41;;;;;;;6.20;2.45;;;17.50;99.70;;;;;;4971430;28;20114;-67
2023/06/14 05:12:07;;;;;;;5.35;2.60;;;17.60;99.10;;;;;;4966531;28;20113;-67
2023/06/14 05:14:33;;;;;;;7.93;2.95;;;17.70;98.60;;;;;;4970745;28;20117;-67
2023/06/14 05:16:59;;;;;;;6.20;3.40;;;18.00;98.00;;;;;;4972878;28;20042;-67
2023/06/14 05:19:25;;;;;;;8.50;3.30;;;18.10;97.40;;;;;;4972598;28;20050;-67
2023/06/14 05:21:50;;;;;;;5.45;2.97;;;18.30;96.90;;;;;;4971902;28;20161;-67
2023/06/14 05:24:19;;;;;;;6.45;3.60;;;18.60;96.40;;;;;;4973417;28;20100;-67
2023/06/14 05:26:45;;;;;;;7.03;3.20;;;18.70;95.70;;;;;;4973081;28;20042;-66
2023/06/14 05:29:11;;;;;;;6.03;2.50;;;18.90;95.10;;;;;;4998795;22;20042;-68
2023/06/14 05:31:37;;;;;;;7.05;2.38;;;18.90;94.50;;;;;;4989698;28;20056;-69
2023/06/14 05:34:03;;;;;;;6.18;2.50;;;19.10;94.20;;;;;;4992454;28;20034;-69
2023/06/14 05:36:29;;;;;;;4.63;2.67;;;19.40;93.40;;;;;;4990678;28;20092;-70
2023/06/14 05:38:59;;;;;;;3.17;2.15;;;19.30;92.70;;;;;;4989395;28;20034;-70
2023/06/14 05:41:28;;;;;;;5.97;2.85;;;19.50;92.20;;;;;;4992310;28;20066;-69
2023/06/14 05:43:55;;;;;;;6.15;2.63;;;19.60;91.90;;;;;;4991012;28;20042;-69
2023/06/14 05:46:24;;;;;;;9.68;2.60;;;19.70;91.60;;;;;;4991123;28;20117;-70
2023/06/14 05:48:50;;;;;;;5.55;2.55;;;19.70;91.10;;;;;;4990536;28;20042;-69
2023/06/14 05:51:18;;;;;;;6.60;2.15;;;19.80;90.70;;;;;;4992023;28;20097;-70
2023/06/14 05:53:46;;;;;;;5.85;2.83;;;20.00;90.60;;;;;;4992340;28;20038;-69
2023/06/14 05:56:11;;;;;;;7.28;2.90;;;20.00;90.70;;;;;;4990835;28;20042;-69
2023/06/14 05:58:37;;;;;;;6.03;2.75;;;20.20;90.00;;;;;;4991760;28;20049;-69
2023/06/14 06:01:03;;;;;;;6.35;2.92;;;20.40;88.70;;;;;;4991802;28;20169;-69
2023/06/14 06:03:29;;;;;;;6.38;2.75;;;20.60;87.30;;;;;;4992092;28;20426;-69
2023/06/14 06:05:55;;;;;;;15.90;3.13;;;20.70;85.60;;;;;;4992202;28;20050;-69
2023/06/14 06:08:20;;;;;;;3.55;2.53;;;20.80;84.20;;;;;;4991969;28;20114;-67
2023/06/14 06:10:46;;;;;;;8.35;3.35;;;20.90;82.20;;;;;;4990559;28;20034;-69
2023/06/14 06:13:12;;;;;;;4.53;2.80;;;21.00;81.60;;;;;;4991922;28;20453;-67
2023/06/14 06:15:37;;;;;;;6.00;2.33;;;21.10;81.10;;;;;;4992207;28;20418;-67
2023/06/14 06:18:03;;;;;;;6.60;3.63;;;21.00;80.20;;;;;;4988740;28;20425;-67
2023/06/14 06:20:30;;;;;;;5.00;2.45;;;21.20;78.70;;;;;;4991342;28;20042;-67
2023/06/14 06:22:57;;;;;;;9.27;3.13;;;21.30;77.60;;;;;;4991839;28;20082;-68
2023/06/14 06:25:23;;;;;;;11.85;3.55;;;21.10;77.60;;;;;;4993128;28;20034;-68
2023/06/14 06:27:48;;;;;;;9.25;3.17;;;21.40;76.70;;;;;;4994441;28;20134;-68
2023/06/14 06:30:15;;;;;;;5.05;2.58;;;21.30;76.00;;;;;;4995276;28;20117;-67
2023/06/14 06:32:41;;;;;;;8.45;2.97;;;21.50;75.60;;;;;;4995910;28;20049;-67
2023/06/14 06:35:08;;;;;;;5.22;2.97;;;21.50;74.80;;;;;;4995652;28;20042;-67
2023/06/14 06:37:34;;;;;;;5.22;3.30;;;21.70;73.50;;;;;;4995329;28;20121;-68
2023/06/14 06:39:59;;;;;;;5.18;2.38;;;21.70;73.10;;;;;;4995078;28;20073;-67
2023/06/14 06:42:25;;;;;;;8.02;3.17;;;22.00;72.90;;;;;;4995408;28;20038;-68
2023/06/14 06:44:51;;;;;;;7.47;3.22;;;22.20;71.20;;;;;;4995595;28;20558;-68
2023/06/14 06:47:16;;;;;;;4.40;2.50;;;22.20;70.70;;;;;;4995161;28;20133;-68
2023/06/14 06:49:42;;;;;;;3.58;2.63;;;22.40;69.50;;;;;;4995003;28;20128;-68
2023/06/14 06:52:08;;;;;;;5.97;2.60;;;22.20;69.00;;;;;;4995326;28;20506;-68
2023/06/14 06:54:34;;;;;;;5.82;2.25;;;22.50;68.70;;;;;;4995268;28;20503;-68
2023/06/14 06:57:01;;;;;;;7.88;2.55;;;22.70;67.70;;;;;;4994839;28;20051;-68
2023/06/14 06:59:27;;;;;;;7.85;3.10;;;22.90;67.20;;;;;;4994982;28;20038;-68
2023/06/14 07:01:53;;;;;;;4.55;2.30;;;23.00;66.00;;;;;;4995241;28;20057;-68
2023/06/14 07:04:18;;;;;;;6.57;2.22;;;22.90;65.00;;;;;;4995150;28;20117;-68
2023/06/14 07:06:46;;;;;;;3.83;2.22;;;23.10;64.50;;;;;;4994885;28;20044;-68
2023/06/14 07:09:13;;;;;;;5.65;2.67;;;23.20;63.60;;;;;;4993254;28;20085;-68
2023/06/14 07:11:39;;;;;;;3.13;2.00;;;23.20;63.40;;;;;;4990157;28;20054;-68
2023/06/14 07:14:05;;;;;;;5.47;3.08;;;23.60;62.10;;;;;;4994482;28;20041;-68
2023/06/14 07:16:31;;;;;;;3.72;2.28;;;23.50;61.90;;;;;;4990210;28;20035;-68
2023/06/14 07:18:56;;;;;;;7.50;2.28;;;23.60;61.20;;;;;;5007290;28;20495;-68
2023/06/14 07:21:22;;;;;;;3.55;2.00;;;23.70;60.70;;;;;;4992116;28;20042;-68
2023/06/14 07:23:48;;;;;;;5.85;2.30;;;23.70;60.00;;;;;;4992938;28;20455;-69
2023/06/14 07:26:13;;;;;;;4.68;2.33;;;23.50;59.20;;;;;;4993012;28;20050;-68
2023/06/14 07:28:39;;;;;;;4.15;2.38;;;23.70;59.00;;;;;;4994815;28;20434;-68
2023/06/14 07:31:05;;;;;;;2.65;1.73;;;23.90;58.60;;;;;;4992790;28;20042;-68
2023/06/14 07:33:30;;;;;;;8.30;2.15;;;24.00;58.90;;;;;;4993939;28;20062;-68
2023/06/14 07:35:59;;;;;;;3.70;2.00;;;24.20;57.70;;;;;;4993623;28;20124;-68
2023/06/14 07:38:24;;;;;;;3.75;1.90;;;24.30;56.90;;;;;;4989231;28;20058;-68
2023/06/14 07:40:50;;;;;;;9.13;2.35;;;24.30;56.20;;;;;;4993378;28;20038;-68
2023/06/14 07:43:16;;;;;;;3.83;2.08;;;24.40;55.60;;;;;;4992294;28;20057;-68
2023/06/14 07:45:42;;;;;;;4.75;2.00;;;24.40;54.80;;;;;;4994313;28;20042;-67
2023/06/14 07:48:07;;;;;;;4.43;1.77;;;24.40;54.50;;;;;;4993971;28;20037;-67
2023/06/14 07:50:33;;;;;;;3.85;2.03;;;24.40;54.00;;;;;;4993916;28;20034;-67
2023/06/14 07:52:58;;;;;;;3.95;2.17;;;24.40;52.90;;;;;;4994139;28;20391;-68
2023/06/14 07:55:25;;;;;;;5.25;2.05;;;24.30;52.00;;;;;;4993998;28;20038;-68
2023/06/14 07:57:50;;;;;;;5.85;2.30;;;24.10;51.70;;;;;;4993950;28;20497;-68
2023/06/14 08:00:18;;;;;;;3.53;1.67;;;24.50;52.00;;;;;;4993881;28;20046;-68
2023/06/14 08:02:44;;;;;;;6.68;1.85;;;24.70;51.60;;;;;;4994068;28;20035;-68
2023/06/14 08:05:13;;;;;;;4.63;1.88;;;24.70;51.60;;;;;;4993379;28;20038;-67
2023/06/14 08:07:39;;;;;;;3.33;1.75;;;25.00;50.20;;;;;;4990451;28;20030;-68
2023/06/14 08:10:06;;;;;;;4.13;1.70;;;25.00;49.60;;;;;;4992082;28;20066;-68
2023/06/14 08:12:32;;;;;;;5.15;2.00;;;25.20;49.70;;;;;;4986741;28;20042;-68
2023/06/14 08:14:58;;;;;;;4.35;1.73;;;24.90;48.90;;;;;;4993315;28;20046;-68
2023/06/14 08:17:23;;;;;;;3.30;1.90;;;24.90;48.40;;;;;;4988943;28;20046;-68
2023/06/14 08:19:49;;;;;;;2.85;1.75;;;25.00;48.60;;;;;;4992674;28;20518;-68
2023/06/14 08:22:16;;;;;;;4.70;1.80;;;24.90;48.50;;;;;;4989595;28;20042;-68
2023/06/14 08:24:42;;;;;;;4.13;2.35;;;25.10;47.80;;;;;;4990099;28;20049;-68
2023/06/14 08:27:08;;;;;;;3.10;1.60;;;25.10;47.40;;;;;;4989098;28;20034;-69
2023/06/14 08:29:34;;;;;;;3.15;2.10;;;25.10;46.90;;;;;;4991729;28;20057;-69
2023/06/14 08:32:00;;;;;;;3.50;1.85;;;25.30;47.00;;;;;;4992979;28;20042;-69
2023/06/14 08:34:26;;;;;;;7.47;1.85;;;25.40;47.50;;;;;;4993520;28;20498;-68
2023/06/14 08:36:51;;;;;;;6.35;2.30;;;25.60;47.20;;;;;;4993041;28;20120;-69
2023/06/14 08:39:17;;;;;;;4.28;2.10;;;25.60;46.80;;;;;;4992810;28;20049;-69
2023/06/14 08:41:48;;;;;;;2.88;2.00;;;25.50;46.20;;;;;;4993493;28;20458;-69
2023/06/14 08:44:15;;;;;;;4.53;1.77;;;25.40;44.70;;;;;;4993430;28;20049;-69
2023/06/14 08:46:42;;;;;;;3.75;1.73;;;25.30;45.20;;;;;;4992438;28;20477;-68
2023/06/14 08:49:11;;;;;;;5.80;1.77;;;25.20;45.80;;;;;;4992135;28;20494;-68
2023/06/14 08:51:37;;;;;;;2.30;1.80;;;25.20;45.50;;;;;;4992956;28;20042;-68
2023/06/14 08:54:03;;;;;;;9.35;2.20;;;25.10;45.80;;;;;;4993197;28;20430;-68
2023/06/14 08:56:30;;;;;;;5.25;2.47;;;25.00;45.30;;;;;;4992983;28;20038;-68
2023/06/14 08:59:00;;;;;;;3.40;1.75;;;25.20;45.10;;;;;;4992724;28;20050;-68
2023/06/14 09:01:26;;;;;;;4.10;2.03;;;24.90;44.60;;;;;;4992991;28;20092;-68
2023/06/14 09:03:54;;;;;;;5.70;2.00;;;25.10;45.00;;;;;;4991507;28;20125;-68
2023/06/14 09:06:22;;;;;;;6.95;2.28;;;24.90;45.00;;;;;;4992614;28;20042;-68
2023/06/14 09:08:48;;;;;;;4.25;1.98;;;25.20;44.70;;;;;;4992710;28;20070;-68
2023/06/14 09:11:20;;;;;;;6.88;2.00;;;25.10;44.20;;;;;;4992770;28;20096;-68
2023/06/14 09:13:47;;;;;;;6.68;2.00;;;25.00;44.90;;;;;;4992877;28;20077;-68
2023/06/14 09:16:13;;;;;;;4.10;2.13;;;25.10;44.80;;;;;;4992709;28;20418;-68
2023/06/14 09:18:47;;;;;;;3.72;1.92;;;24.80;44.80;;;;;;4991241;28;20125;-68
2023/06/14 09:21:14;;;;;;;4.25;1.85;;;25.00;45.00;;;;;;4992510;28;20069;-68
2023/06/14 09:23:44;;;;;;;3.67;1.95;;;25.20;45.00;;;;;;4992564;28;20038;-68
2023/06/14 09:26:13;;;;;;;4.03;2.00;;;25.20;44.80;;;;;;4992602;28;20034;-69
2023/06/14 09:28:46;;;;;;;5.38;2.08;;;25.60;44.80;;;;;;4992429;28;20038;-69
2023/06/14 09:31:13;;;;;;;3.40;1.90;;;25.60;44.40;;;;;;4990846;28;20096;-68
2023/06/14 09:33:47;;;;;;;4.88;1.83;;;25.60;43.40;;;;;;4992452;28;20092;-68
2023/06/14 09:36:18;;;;;;;7.20;1.80;;;25.80;43.70;;;;;;4988201;28;20065;-69
2023/06/14 09:38:54;;;;;;;5.22;2.13;;;25.50;43.10;;;;;;4989215;28;20363;-69
2023/06/14 09:41:20;;;;;;;5.15;1.98;;;25.50;43.30;;;;;;4989547;28;20104;-69
2023/06/14 09:43:47;;;;;;;3.50;1.80;;;25.60;43.50;;;;;;4990465;28;20082;-69
2023/06/14 09:46:13;;;;;;;2.88;1.92;;;25.40;43.20;;;;;;4992260;28;20058;-69
2023/06/14 09:48:42;;;;;;;3.00;2.00;;;25.30;43.60;;;;;;4992208;28;20042;-69
2023/06/14 09:51:10;;;;;;;4.38;1.77;;;25.50;43.90;;;;;;4991944;28;20178;-69
2023/06/14 09:53:37;;;;;;;4.45;1.90;;;25.60;43.90;;;;;;4992207;28;20687;-69
2023/06/14 09:56:05;;;;;;;3.63;1.63;;;25.50;43.10;;;;;;4992175;28;20049;-69
2023/06/14 09:58:33;;;;;;;3.58;1.77;;;25.40;43.00;;;;;;4992240;28;20053;-69
2023/06/14 10:00:59;;;;;;;3.42;1.90;;;25.10;42.60;;;;;;4991198;28;20054;-69
2023/06/14 10:03:28;;;;;;;12.70;2.35;;;25.00;42.10;;;;;;4990745;28;20406;-69
2023/06/14 10:06:00;;;;;;;5.25;1.70;;;25.10;42.20;;;;;;4992179;28;20449;-69
2023/06/14 10:08:30;;;;;;;4.75;2.17;;;25.20;42.50;;;;;;4991680;28;20038;-69
2023/06/14 10:10:56;;;;;;;3.70;1.75;;;25.10;42.70;;;;;;4991619;28;20038;-69
2023/06/14 10:13:22;;;;;;;1.80;1.40;;;25.20;42.50;;;;;;4992062;28;20053;-69
2023/06/14 10:16:09;;;;;;;3.85;1.77;;;25.20;42.30;;;;;;4992149;28;20038;-69
2023/06/14 10:18:49;;;;;;;6.18;2.33;;;25.10;42.10;;;;;;4991734;28;20495;-69
2023/06/14 10:21:29;;;;;;;4.88;1.77;;;25.00;41.70;;;;;;4990762;28;20050;-69
2023/06/14 10:24:00;;;;;;;7.68;2.00;;;24.90;41.50;;;;;;4992148;28;20050;-69
2023/06/14 10:26:26;;;;;;;4.00;2.20;;;24.90;41.80;;;;;;4991984;28;20418;-69
2023/06/14 10:29:07;;;;;;;4.70;2.17;;;24.90;41.50;;;;;;4990301;28;20089;-69
2023/06/14 10:31:47;;;;;;;5.53;1.90;;;24.90;41.30;;;;;;4989625;28;20046;-69
2023/06/14 10:34:24;;;;;;;6.45;2.20;;;24.70;41.70;;;;;;4990595;28;20093;-69
2023/06/14 10:37:20;;;;;;;2.90;1.70;;;24.90;42.40;;;;;;4990526;28;20062;-69
2023/06/14 10:39:46;;;;;;;2.38;1.40;;;24.90;41.60;;;;;;4986754;28;20082;-69
2023/06/14 10:42:13;;;;;;;2.42;1.42;;;25.10;41.70;;;;;;4991718;28;20053;-68
2023/06/14 10:44:40;;;;;;;3.85;1.55;;;25.10;41.70;;;;;;4991822;28;20038;-69
2023/06/14 10:47:23;;;;;;;5.32;1.80;;;25.00;41.30;;;;;;4990355;28;20070;-69
2023/06/14 10:49:52;;;;;;;2.85;1.70;;;25.00;40.90;;;;;;4988813;28;20113;-69
2023/06/14 10:52:24;;;;;;;3.83;1.85;;;24.80;41.20;;;;;;4991661;28;20046;-69
2023/06/14 10:55:01;;;;;;;2.50;1.52;;;24.80;41.30;;;;;;4991802;28;20038;-68
2023/06/14 10:57:27;;;;;;;4.90;1.48;;;24.70;42.20;;;;;;4991459;28;20078;-69
2023/06/14 10:59:52;;;;;;;2.17;1.42;;;24.70;41.40;;;;;;4991137;28;20041;-69
2023/06/14 11:02:51;;;;;;;4.28;1.02;;;24.70;40.10;;;;;;4986491;28;20096;-69
2023/06/14 11:05:27;;;;;;;5.80;1.60;;;24.70;39.80;;;;;;4987241;28;20507;-68
2023/06/14 11:08:24;;;;;;;2.08;1.33;;;24.80;40.70;;;;;;4987284;28;20047;-68
2023/06/14 11:10:50;;;;;;;3.22;1.50;;;25.00;40.70;;;;;;4978742;28;20030;-68
2023/06/14 11:13:17;;;;;;;2.47;1.17;;;25.00;40.70;;;;;;4990576;28;20498;-68
2023/06/14 11:15:47;;;;;;;1.20;0.95;;;25.10;39.90;;;;;;4993560;28;20027;-68
2023/06/14 11:18:13;;;;;;;3.53;1.10;;;24.90;38.90;;;;;;4994586;28;20034;-68
2023/06/14 11:20:40;;;;;;;3.58;1.40;;;24.70;39.30;;;;;;4993725;28;20056;-69
2023/06/14 11:23:06;;;;;;;5.28;1.23;;;24.80;39.60;;;;;;4994245;28;20046;-69
2023/06/14 11:25:32;;;;;;;2.75;1.33;;;24.70;39.50;;;;;;4993989;28;20113;-69
2023/06/14 11:27:58;;;;;;;6.35;1.30;;;24.80;39.50;;;;;;4994157;28;20070;-69
2023/06/14 11:30:25;;;;;;;2.95;1.30;;;24.90;40.70;;;;;;4993323;28;20474;-70
2023/06/14 11:32:53;;;;;;;3.65;1.70;;;24.90;39.60;;;;;;4994492;28;20034;-69
2023/06/14 11:35:23;;;;;;;3.80;1.20;;;25.00;40.10;;;;;;4994419;28;20093;-68
2023/06/14 11:37:49;;;;;;;4.38;1.23;;;25.00;40.10;;;;;;4993862;28;20034;-68
2023/06/14 11:40:15;;;;;;;1.38;0.90;;;25.10;39.80;;;;;;4993521;28;20075;-68
2023/06/14 11:42:41;;;;;;;4.72;1.20;;;25.00;38.80;;;;;;4994494;28;20493;-69
2023/06/14 11:45:08;;;;;;;1.30;1.20;;;25.10;39.30;;;;;;4994494;28;20402;-68
2023/06/14 11:47:38;;;;;;;4.10;1.40;;;24.90;39.50;;;;;;4994798;28;20121;-69
2023/06/14 11:50:06;;;;;;;2.15;1.30;;;24.70;39.50;;;;;;4992678;28;20045;-68
2023/06/14 11:52:32;;;;;;;2.00;1.20;;;24.70;39.80;;;;;;4994245;28;20046;-69
2023/06/14 11:54:58;;;;;;;5.13;1.42;;;24.70;39.30;;;;;;4992976;28;20593;-68
2023/06/14 11:57:25;;;;;;;6.32;1.50;;;24.70;38.70;;;;;;4993921;28;20133;-68
2023/06/14 11:59:51;;;;;;;2.03;1.40;;;24.80;39.10;;;;;;4993854;28;20553;-69
2023/06/14 12:02:17;;;;;;;1.83;1.08;;;24.80;38.80;;;;;;4993077;28;20045;-69
2023/06/14 12:04:48;;;;;;;3.17;1.50;;;24.70;39.40;;;;;;4994197;28;20034;-70
2023/06/14 12:07:19;;;;;;;3.08;1.27;;;24.80;39.30;;;;;;4992429;28;20049;-69
2023/06/14 12:09:54;;;;;;;2.75;1.40;;;24.80;39.20;;;;;;4993786;28;20109;-68
2023/06/14 12:12:25;;;;;;;2.95;1.45;;;24.80;39.40;;;;;;4993945;28;20038;-68
2023/06/14 12:14:51;;;;;;;4.50;1.30;;;24.90;39.20;;;;;;4994074;28;20401;-68
2023/06/14 12:17:18;;;;;;;3.75;1.45;;;25.00;39.70;;;;;;4991887;28;20042;-68
2023/06/14 12:19:44;;;;;;;3.13;1.25;;;24.90;39.20;;;;;;4992831;28;20045;-68
2023/06/14 12:22:11;;;;;;;5.88;1.45;;;24.80;39.20;;;;;;4993349;28;20046;-68
2023/06/14 12:24:37;;;;;;;5.15;1.27;;;24.80;39.40;;;;;;4991812;28;20038;-68
2023/06/14 12:27:04;;;;;;;2.38;1.35;;;24.80;39.10;;;;;;4993023;28;20545;-68
2023/06/14 12:29:30;;;;;;;4.10;1.23;;;24.70;38.90;;;;;;4991309;28;20042;-68
2023/06/14 12:31:56;;;;;;;2.47;1.70;;;24.90;39.00;;;;;;4993249;28;20117;-68
2023/06/14 12:34:26;;;;;;;4.78;1.10;;;24.90;39.30;;;;;;4993003;28;20077;-68
2023/06/14 12:36:56;;;;;;;4.82;1.40;;;25.10;39.50;;;;;;4992994;28;20034;-69
2023/06/14 12:39:21;;;;;;;2.90;1.67;;;25.10;39.20;;;;;;4992691;28;20038;-68
2023/06/14 12:41:48;;;;;;;1.63;0.95;;;25.20;38.50;;;;;;4993095;28;20438;-68
2023/06/14 12:44:14;;;;;;;4.13;1.40;;;25.20;38.40;;;;;;4993437;28;20049;-68
2023/06/14 12:46:41;;;;;;;2.85;1.30;;;25.00;38.20;;;;;;4992955;28;20070;-68